sensor_id;sensor_type;location;lat;lon;timestamp;pressure;altitude;pressure_sealevel;temperature;humidity
75740;BME280;64357;51.344;6.550;2023-01-15T00:03:47;99659.88;;;6.53;88.89
75740;BME280;64357;51.344;6.550;2023-01-15T00:06:14;99688.06;;;6.56;86.90
75740;BME280;64357;51.344;6.550;2023-01-15T00:08:39;99695.41;;;6.53;85.63
75740;BME280;64357;51.344;6.550;2023-01-15T00:11:05;99707.31;;;6.62;86.03
75740;BME280;64357;51.344;6.550;2023-01-15T00:13:30;99700.63;;;6.63;84.78
75740;BME280;64357;51.344;6.550;2023-01-15T00:18:41;99687.28;;;6.74;85.50
75740;BME280;64357;51.344;6.550;2023-01-15T00:21:09;99687.91;;;6.80;85.94
75740;BME280;64357;51.344;6.550;2023-01-15T00:23:38;99660.84;;;6.89;85.46
75740;BME280;64357;51.344;6.550;2023-01-15T00:26:27;99668.44;;;6.89;86.87
75740;BME280;64357;51.344;6.550;2023-01-15T00:29:12;99669.03;;;6.95;87.35
75740;BME280;64357;51.344;6.550;2023-01-15T00:31:55;99672.47;;;6.96;87.23
75740;BME280;64357;51.344;6.550;2023-01-15T00:34:21;99661.28;;;6.85;86.91
75740;BME280;64357;51.344;6.550;2023-01-15T00:36:50;99678.28;;;6.95;86.46
75740;BME280;64357;51.344;6.550;2023-01-15T00:39:15;99665.78;;;6.88;85.35
75740;BME280;64357;51.344;6.550;2023-01-15T00:41:41;99654.41;;;6.93;84.46
75740;BME280;64357;51.344;6.550;2023-01-15T00:44:06;99662.03;;;6.93;83.19
75740;BME280;64357;51.344;6.550;2023-01-15T00:46:31;99670.22;;;6.90;82.77
75740;BME280;64357;51.344;6.550;2023-01-15T00:48:57;99661.28;;;6.94;82.24
75740;BME280;64357;51.344;6.550;2023-01-15T00:51:22;99637.97;;;6.98;81.71
75740;BME280;64357;51.344;6.550;2023-01-15T00:53:52;99639.78;;;6.90;82.29
75740;BME280;64357;51.344;6.550;2023-01-15T00:56:20;99649.78;;;6.89;81.41
75740;BME280;64357;51.344;6.550;2023-01-15T00:58:45;99648.44;;;6.92;81.06
75740;BME280;64357;51.344;6.550;2023-01-15T01:01:12;99655.75;;;6.89;80.81
75740;BME280;64357;51.344;6.550;2023-01-15T01:03:38;99646.03;;;6.94;80.67
75740;BME280;64357;51.344;6.550;2023-01-15T01:06:06;99654.13;;;6.90;81.07
75740;BME280;64357;51.344;6.550;2023-01-15T01:08:34;99666.94;;;6.91;81.34
75740;BME280;64357;51.344;6.550;2023-01-15T01:11:04;99677.88;;;6.82;81.63
75740;BME280;64357;51.344;6.550;2023-01-15T01:13:31;99684.59;;;6.81;81.74
75740;BME280;64357;51.344;6.550;2023-01-15T01:15:56;99681.44;;;6.84;81.06
75740;BME280;64357;51.344;6.550;2023-01-15T01:18:24;99690.84;;;6.85;80.84
75740;BME280;64357;51.344;6.550;2023-01-15T01:20:52;99687.59;;;6.77;82.17
75740;BME280;64357;51.344;6.550;2023-01-15T01:23:22;99695.22;;;6.77;82.10
75740;BME280;64357;51.344;6.550;2023-01-15T01:25:48;99694.00;;;6.82;81.16
75740;BME280;64357;51.344;6.550;2023-01-15T01:28:13;99693.25;;;6.83;81.05
75740;BME280;64357;51.344;6.550;2023-01-15T01:30:39;99690.59;;;6.82;81.01
75740;BME280;64357;51.344;6.550;2023-01-15T01:33:05;99692.50;;;6.84;80.09
75740;BME280;64357;51.344;6.550;2023-01-15T01:35:30;99670.13;;;6.80;80.98
75740;BME280;64357;51.344;6.550;2023-01-15T01:37:55;99700.16;;;6.76;80.08
75740;BME280;64357;51.344;6.550;2023-01-15T01:40:21;99691.03;;;6.78;81.31
75740;BME280;64357;51.344;6.550;2023-01-15T01:42:49;99691.34;;;6.72;80.56
75740;BME280;64357;51.344;6.550;2023-01-15T01:47:53;99699.66;;;6.88;79.25
75740;BME280;64357;51.344;6.550;2023-01-15T01:50:20;99706.97;;;6.85;79.94
75740;BME280;64357;51.344;6.550;2023-01-15T01:52:51;99706.41;;;6.79;79.24
75740;BME280;64357;51.344;6.550;2023-01-15T01:55:21;99705.19;;;6.84;80.44
75740;BME280;64357;51.344;6.550;2023-01-15T01:57:49;99717.28;;;6.78;79.34
75740;BME280;64357;51.344;6.550;2023-01-15T02:00:15;99711.34;;;6.86;78.80
75740;BME280;64357;51.344;6.550;2023-01-15T02:02:43;99701.75;;;6.84;78.35
75740;BME280;64357;51.344;6.550;2023-01-15T02:05:13;99691.31;;;6.89;78.29
75740;BME280;64357;51.344;6.550;2023-01-15T02:07:40;99686.53;;;6.92;77.93
75740;BME280;64357;51.344;6.550;2023-01-15T02:10:12;99700.69;;;6.90;77.18
75740;BME280;64357;51.344;6.550;2023-01-15T02:12:38;99707.00;;;6.77;79.15
75740;BME280;64357;51.344;6.550;2023-01-15T02:15:06;99700.41;;;6.79;78.75
75740;BME280;64357;51.344;6.550;2023-01-15T02:17:47;99710.84;;;6.90;77.68
75740;BME280;64357;51.344;6.550;2023-01-15T02:22:58;99693.69;;;6.88;78.38
75740;BME280;64357;51.344;6.550;2023-01-15T02:25:56;99686.97;;;6.88;78.46
75740;BME280;64357;51.344;6.550;2023-01-15T02:28:37;99665.47;;;6.85;78.45
75740;BME280;64357;51.344;6.550;2023-01-15T02:31:38;99667.59;;;6.80;79.51
75740;BME280;64357;51.344;6.550;2023-01-15T02:36:50;99668.19;;;6.86;78.10
75740;BME280;64357;51.344;6.550;2023-01-15T02:39:17;99675.34;;;6.82;77.87
75740;BME280;64357;51.344;6.550;2023-01-15T02:41:47;99667.72;;;6.82;77.73
75740;BME280;64357;51.344;6.550;2023-01-15T02:44:17;99671.59;;;6.87;78.19
75740;BME280;64357;51.344;6.550;2023-01-15T02:46:44;99661.91;;;6.83;78.14
75740;BME280;64357;51.344;6.550;2023-01-15T02:49:16;99669.34;;;6.90;78.85
75740;BME280;64357;51.344;6.550;2023-01-15T02:51:54;99666.22;;;6.84;78.05
75740;BME280;64357;51.344;6.550;2023-01-15T02:54:27;99673.88;;;6.75;78.71
75740;BME280;64357;51.344;6.550;2023-01-15T02:56:59;99667.44;;;6.79;79.41
75740;BME280;64357;51.344;6.550;2023-01-15T02:59:32;99677.31;;;6.76;78.63
75740;BME280;64357;51.344;6.550;2023-01-15T03:02:00;99677.13;;;6.74;79.22
75740;BME280;64357;51.344;6.550;2023-01-15T03:07:09;99667.91;;;6.75;79.93
75740;BME280;64357;51.344;6.550;2023-01-15T03:09:36;99656.53;;;6.80;79.89
75740;BME280;64357;51.344;6.550;2023-01-15T03:12:05;99652.94;;;6.86;80.03
75740;BME280;64357;51.344;6.550;2023-01-15T03:14:41;99653.97;;;6.80;80.74
75740;BME280;64357;51.344;6.550;2023-01-15T03:17:34;99650.41;;;6.78;79.71
75740;BME280;64357;51.344;6.550;2023-01-15T03:20:15;99646.38;;;6.80;79.69
75740;BME280;64357;51.344;6.550;2023-01-15T03:22:44;99634.75;;;6.73;81.20
75740;BME280;64357;51.344;6.550;2023-01-15T03:25:20;99646.22;;;6.87;80.18
75740;BME280;64357;51.344;6.550;2023-01-15T03:27:49;99631.44;;;6.83;80.22
75740;BME280;64357;51.344;6.550;2023-01-15T03:30:19;99625.94;;;6.78;80.26
75740;BME280;64357;51.344;6.550;2023-01-15T03:32:45;99625.78;;;6.77;80.33
75740;BME280;64357;51.344;6.550;2023-01-15T03:38:18;99638.03;;;6.72;80.78
75740;BME280;64357;51.344;6.550;2023-01-15T03:41:18;99638.63;;;6.78;80.68
75740;BME280;64357;51.344;6.550;2023-01-15T03:46:56;99640.97;;;6.85;79.49
75740;BME280;64357;51.344;6.550;2023-01-15T03:55:17;99632.38;;;6.75;80.02
75740;BME280;64357;51.344;6.550;2023-01-15T03:57:58;99633.22;;;6.84;79.61
75740;BME280;64357;51.344;6.550;2023-01-15T04:00:27;99635.50;;;6.81;79.58
75740;BME280;64357;51.344;6.550;2023-01-15T04:02:58;99628.00;;;6.82;79.73
75740;BME280;64357;51.344;6.550;2023-01-15T04:05:27;99632.47;;;6.93;79.65
75740;BME280;64357;51.344;6.550;2023-01-15T04:07:56;99637.72;;;6.86;79.34
75740;BME280;64357;51.344;6.550;2023-01-15T04:10:22;99635.19;;;6.78;79.63
75740;BME280;64357;51.344;6.550;2023-01-15T04:12:52;99637.56;;;6.85;79.41
75740;BME280;64357;51.344;6.550;2023-01-15T04:15:18;99641.28;;;6.80;79.68
75740;BME280;64357;51.344;6.550;2023-01-15T04:17:46;99636.97;;;6.79;79.45
75740;BME280;64357;51.344;6.550;2023-01-15T04:20:11;99649.78;;;6.89;79.34
75740;BME280;64357;51.344;6.550;2023-01-15T04:22:40;99643.97;;;6.90;78.89
75740;BME280;64357;51.344;6.550;2023-01-15T04:25:06;99649.22;;;6.83;78.83
75740;BME280;64357;51.344;6.550;2023-01-15T04:27:31;99649.94;;;6.90;78.58
75740;BME280;64357;51.344;6.550;2023-01-15T04:29:56;99649.66;;;6.87;79.89
75740;BME280;64357;51.344;6.550;2023-01-15T04:32:22;99649.66;;;6.79;79.40
75740;BME280;64357;51.344;6.550;2023-01-15T04:34:48;99638.63;;;6.78;78.79
75740;BME280;64357;51.344;6.550;2023-01-15T04:37:18;99646.06;;;6.85;78.54
75740;BME280;64357;51.344;6.550;2023-01-15T04:39:45;99634.31;;;6.77;78.82
75740;BME280;64357;51.344;6.550;2023-01-15T04:42:13;99629.66;;;6.73;78.97
75740;BME280;64357;51.344;6.550;2023-01-15T04:44:57;99633.09;;;6.82;79.42
75740;BME280;64357;51.344;6.550;2023-01-15T04:47:22;99635.19;;;6.78;79.76
75740;BME280;64357;51.344;6.550;2023-01-15T04:49:48;99637.88;;;6.79;79.11
75740;BME280;64357;51.344;6.550;2023-01-15T04:52:14;99636.97;;;6.79;79.21
75740;BME280;64357;51.344;6.550;2023-01-15T04:54:39;99639.69;;;6.80;79.34
75740;BME280;64357;51.344;6.550;2023-01-15T04:57:04;99640.56;;;6.81;79.70
75740;BME280;64357;51.344;6.550;2023-01-15T04:59:30;99646.84;;;6.76;79.37
75740;BME280;64357;51.344;6.550;2023-01-15T05:01:55;99641.78;;;6.76;79.58
75740;BME280;64357;51.344;6.550;2023-01-15T05:04:21;99636.84;;;6.77;79.61
75740;BME280;64357;51.344;6.550;2023-01-15T05:06:46;99642.66;;;6.76;78.77
75740;BME280;64357;51.344;6.550;2023-01-15T05:09:11;99634.66;;;6.63;79.67
75740;BME280;64357;51.344;6.550;2023-01-15T05:11:38;99637.78;;;6.69;79.36
75740;BME280;64357;51.344;6.550;2023-01-15T05:14:06;99651.94;;;6.67;79.35
75740;BME280;64357;51.344;6.550;2023-01-15T05:16:31;99649.69;;;6.70;79.27
75740;BME280;64357;51.344;6.550;2023-01-15T05:19:01;99648.19;;;6.72;78.73
75740;BME280;64357;51.344;6.550;2023-01-15T05:21:33;99649.38;;;6.76;79.03
75740;BME280;64357;51.344;6.550;2023-01-15T05:24:01;99651.75;;;6.74;78.95
75740;BME280;64357;51.344;6.550;2023-01-15T05:26:29;99646.84;;;6.67;79.51
75740;BME280;64357;51.344;6.550;2023-01-15T05:28:56;99640.44;;;6.71;78.76
75740;BME280;64357;51.344;6.550;2023-01-15T05:31:22;99649.84;;;6.72;78.51
75740;BME280;64357;51.344;6.550;2023-01-15T05:33:52;99647.63;;;6.66;79.37
75740;BME280;64357;51.344;6.550;2023-01-15T05:36:20;99643.72;;;6.70;78.26
75740;BME280;64357;51.344;6.550;2023-01-15T05:38:46;99643.44;;;6.66;78.66
75740;BME280;64357;51.344;6.550;2023-01-15T05:41:18;99627.75;;;6.62;78.91
75740;BME280;64357;51.344;6.550;2023-01-15T05:44:06;99626.41;;;6.65;79.04
75740;BME280;64357;51.344;6.550;2023-01-15T05:46:33;99631.34;;;6.64;78.40
75740;BME280;64357;51.344;6.550;2023-01-15T05:49:00;99639.88;;;6.64;78.49
75740;BME280;64357;51.344;6.550;2023-01-15T05:51:26;99656.13;;;6.66;78.22
75740;BME280;64357;51.344;6.550;2023-01-15T05:53:55;99657.63;;;6.64;78.69
75740;BME280;64357;51.344;6.550;2023-01-15T05:56:22;99648.06;;;6.62;78.21
75740;BME280;64357;51.344;6.550;2023-01-15T05:58:48;99651.94;;;6.67;78.44
75740;BME280;64357;51.344;6.550;2023-01-15T06:01:13;99654.03;;;6.62;78.87
75740;BME280;64357;51.344;6.550;2023-01-15T06:03:39;99664.94;;;6.61;78.26
75740;BME280;64357;51.344;6.550;2023-01-15T06:06:06;99658.81;;;6.59;78.11
75740;BME280;64357;51.344;6.550;2023-01-15T06:08:35;99654.78;;;6.61;78.95
75740;BME280;64357;51.344;6.550;2023-01-15T06:11:01;99661.94;;;6.65;78.68
75740;BME280;64357;51.344;6.550;2023-01-15T06:13:26;99670.00;;;6.70;77.95
75740;BME280;64357;51.344;6.550;2023-01-15T06:15:51;99670.59;;;6.67;78.76
75740;BME280;64357;51.344;6.550;2023-01-15T06:18:19;99659.84;;;6.61;78.95
75740;BME280;64357;51.344;6.550;2023-01-15T06:20:44;99666.88;;;6.64;79.00
75740;BME280;64357;51.344;6.550;2023-01-15T06:23:10;99667.91;;;6.66;78.76
75740;BME280;64357;51.344;6.550;2023-01-15T06:25:37;99660.75;;;6.71;79.36
75740;BME280;64357;51.344;6.550;2023-01-15T06:28:03;99665.81;;;6.71;78.27
75740;BME280;64357;51.344;6.550;2023-01-15T06:30:31;99667.16;;;6.67;79.49
75740;BME280;64357;51.344;6.550;2023-01-15T06:32:57;99662.84;;;6.66;79.82
75740;BME280;64357;51.344;6.550;2023-01-15T06:35:22;99665.09;;;6.63;79.06
75740;BME280;64357;51.344;6.550;2023-01-15T06:37:48;99667.31;;;6.68;78.55
75740;BME280;64357;51.344;6.550;2023-01-15T06:40:17;99668.09;;;6.59;79.13
75740;BME280;64357;51.344;6.550;2023-01-15T06:42:43;99669.41;;;6.55;79.45
75740;BME280;64357;51.344;6.550;2023-01-15T06:45:29;99669.59;;;6.57;79.00
75740;BME280;64357;51.344;6.550;2023-01-15T06:48:16;99666.31;;;6.58;78.76
75740;BME280;64357;51.344;6.550;2023-01-15T06:50:43;99660.59;;;6.60;78.78
75740;BME280;64357;51.344;6.550;2023-01-15T06:53:08;99670.91;;;6.62;78.70
75740;BME280;64357;51.344;6.550;2023-01-15T06:55:36;99660.63;;;6.52;78.34
75740;BME280;64357;51.344;6.550;2023-01-15T06:58:04;99664.81;;;6.51;78.23
75740;BME280;64357;51.344;6.550;2023-01-15T07:00:30;99657.22;;;6.51;77.91
75740;BME280;64357;51.344;6.550;2023-01-15T07:02:58;99665.72;;;6.52;77.64
75740;BME280;64357;51.344;6.550;2023-01-15T07:05:24;99671.97;;;6.55;77.21
75740;BME280;64357;51.344;6.550;2023-01-15T07:07:52;99669.59;;;6.48;77.03
75740;BME280;64357;51.344;6.550;2023-01-15T07:10:17;99674.34;;;6.54;77.34
75740;BME280;64357;51.344;6.550;2023-01-15T07:12:42;99670.31;;;6.56;77.06
75740;BME280;64357;51.344;6.550;2023-01-15T07:15:08;99670.75;;;6.60;77.24
75740;BME280;64357;51.344;6.550;2023-01-15T07:17:33;99672.13;;;6.48;76.72
75740;BME280;64357;51.344;6.550;2023-01-15T07:19:59;99675.84;;;6.43;77.89
75740;BME280;64357;51.344;6.550;2023-01-15T07:22:24;99684.81;;;6.48;76.95
75740;BME280;64357;51.344;6.550;2023-01-15T07:24:49;99692.84;;;6.44;77.73
75740;BME280;64357;51.344;6.550;2023-01-15T07:27:15;99690.78;;;6.40;77.62
75740;BME280;64357;51.344;6.550;2023-01-15T07:29:40;99692.13;;;6.45;77.32
75740;BME280;64357;51.344;6.550;2023-01-15T07:32:08;99692.72;;;6.43;77.89
75740;BME280;64357;51.344;6.550;2023-01-15T07:34:34;99698.53;;;6.33;77.98
75740;BME280;64357;51.344;6.550;2023-01-15T07:36:59;99690.78;;;6.31;77.57
75740;BME280;64357;51.344;6.550;2023-01-15T07:39:25;99706.88;;;6.32;77.60
75740;BME280;64357;51.344;6.550;2023-01-15T07:41:52;99695.41;;;6.35;77.69
75740;BME280;64357;51.344;6.550;2023-01-15T07:44:36;99695.09;;;6.32;78.08
75740;BME280;64357;51.344;6.550;2023-01-15T07:47:22;99703.47;;;6.31;77.81
75740;BME280;64357;51.344;6.550;2023-01-15T07:50:11;99706.28;;;6.26;77.62
75740;BME280;64357;51.344;6.550;2023-01-15T07:52:36;99718.50;;;6.21;78.16
75740;BME280;64357;51.344;6.550;2023-01-15T07:55:04;99713.63;;;6.23;78.05
75740;BME280;64357;51.344;6.550;2023-01-15T07:57:30;99718.22;;;6.18;77.59
75740;BME280;64357;51.344;6.550;2023-01-15T07:59:55;99719.59;;;6.23;76.80
75740;BME280;64357;51.344;6.550;2023-01-15T08:02:21;99734.19;;;6.26;77.73
75740;BME280;64357;51.344;6.550;2023-01-15T08:04:46;99739.09;;;6.33;76.12
75740;BME280;64357;51.344;6.550;2023-01-15T08:07:15;99737.16;;;6.39;76.56
75740;BME280;64357;51.344;6.550;2023-01-15T08:09:40;99738.38;;;6.34;77.13
75740;BME280;64357;51.344;6.550;2023-01-15T08:12:06;99722.88;;;6.22;76.82
75740;BME280;64357;51.344;6.550;2023-01-15T08:14:52;99726.44;;;6.33;76.85
75740;BME280;64357;51.344;6.550;2023-01-15T08:17:43;99749.53;;;6.27;76.30
75740;BME280;64357;51.344;6.550;2023-01-15T08:20:14;99761.00;;;6.15;76.28
75740;BME280;64357;51.344;6.550;2023-01-15T08:22:43;99764.44;;;6.15;76.04
75740;BME280;64357;51.344;6.550;2023-01-15T08:25:11;99747.03;;;6.10;76.39
75740;BME280;64357;51.344;6.550;2023-01-15T08:27:37;99776.22;;;6.06;76.71
75740;BME280;64357;51.344;6.550;2023-01-15T08:30:07;99756.25;;;6.18;75.51
75740;BME280;64357;51.344;6.550;2023-01-15T08:32:35;99766.56;;;6.11;75.22
75740;BME280;64357;51.344;6.550;2023-01-15T08:35:05;99775.19;;;6.04;75.91
75740;BME280;64357;51.344;6.550;2023-01-15T08:37:30;99777.56;;;6.03;75.86
75740;BME280;64357;51.344;6.550;2023-01-15T08:39:56;99757.13;;;6.01;75.64
75740;BME280;64357;51.344;6.550;2023-01-15T08:42:21;99769.94;;;6.03;75.84
75740;BME280;64357;51.344;6.550;2023-01-15T08:44:47;99768.69;;;5.91;76.35
75740;BME280;64357;51.344;6.550;2023-01-15T08:47:14;99770.31;;;5.81;75.98
75740;BME280;64357;51.344;6.550;2023-01-15T08:49:39;99790.28;;;5.78;74.63
75740;BME280;64357;51.344;6.550;2023-01-15T08:52:04;99781.63;;;5.76;75.11
75740;BME280;64357;51.344;6.550;2023-01-15T08:54:32;99775.69;;;5.84;74.68
75740;BME280;64357;51.344;6.550;2023-01-15T08:56:58;99781.59;;;5.68;75.70
75740;BME280;64357;51.344;6.550;2023-01-15T08:59:24;99771.31;;;5.66;74.76
75740;BME280;64357;51.344;6.550;2023-01-15T09:01:52;99776.78;;;5.62;75.49
75740;BME280;64357;51.344;6.550;2023-01-15T09:04:19;99789.63;;;5.64;75.95
75740;BME280;64357;51.344;6.550;2023-01-15T09:06:48;99785.88;;;5.60;75.39
75740;BME280;64357;51.344;6.550;2023-01-15T09:09:13;99769.94;;;5.61;76.08
75740;BME280;64357;51.344;6.550;2023-01-15T09:11:40;99786.75;;;5.52;76.54
75740;BME280;64357;51.344;6.550;2023-01-15T09:14:11;99773.06;;;5.58;77.12
75740;BME280;64357;51.344;6.550;2023-01-15T09:16:37;99782.94;;;5.64;76.82
75740;BME280;64357;51.344;6.550;2023-01-15T09:19:04;99786.66;;;5.68;77.19
75740;BME280;64357;51.344;6.550;2023-01-15T09:21:30;99782.81;;;5.71;76.79
75740;BME280;64357;51.344;6.550;2023-01-15T09:23:55;99765.81;;;5.70;77.32
75740;BME280;64357;51.344;6.550;2023-01-15T09:26:26;99766.63;;;5.86;76.72
75740;BME280;64357;51.344;6.550;2023-01-15T09:28:52;99753.31;;;5.80;76.73
75740;BME280;64357;51.344;6.550;2023-01-15T09:31:18;99766.00;;;5.89;76.62
75740;BME280;64357;51.344;6.550;2023-01-15T09:33:44;99750.94;;;5.91;77.07
75740;BME280;64357;51.344;6.550;2023-01-15T09:36:17;99755.03;;;5.97;76.48
75740;BME280;64357;51.344;6.550;2023-01-15T09:38:44;99760.41;;;6.00;76.65
75740;BME280;64357;51.344;6.550;2023-01-15T09:41:14;99764.59;;;6.00;76.02
75740;BME280;64357;51.344;6.550;2023-01-15T09:57:31;99761.97;;;6.41;73.08
75740;BME280;64357;51.344;6.550;2023-01-15T09:59:57;99780.16;;;6.55;72.86
75740;BME280;64357;51.344;6.550;2023-01-15T10:05:01;99788.97;;;6.50;71.59
75740;BME280;64357;51.344;6.550;2023-01-15T10:08:10;99789.28;;;6.53;71.41
75740;BME280;64357;51.344;6.550;2023-01-15T10:11:00;99783.28;;;6.61;70.80
75740;BME280;64357;51.344;6.550;2023-01-15T10:13:46;99776.28;;;6.58;70.29
75740;BME280;64357;51.344;6.550;2023-01-15T10:16:19;99773.44;;;6.55;69.39
75740;BME280;64357;51.344;6.550;2023-01-15T10:18:51;99788.06;;;6.66;69.68
75740;BME280;64357;51.344;6.550;2023-01-15T10:26:56;99760.88;;;6.74;69.63
75740;BME280;64357;51.344;6.550;2023-01-15T10:35:15;99783.59;;;6.99;66.94
75740;BME280;64357;51.344;6.550;2023-01-15T10:38:18;99780.88;;;6.97;66.83
75740;BME280;64357;51.344;6.550;2023-01-15T10:43:45;99781.97;;;6.82;67.77
75740;BME280;64357;51.344;6.550;2023-01-15T10:46:15;99792.69;;;6.88;67.38
75740;BME280;64357;51.344;6.550;2023-01-15T10:51:20;99799.69;;;6.90;66.75
75740;BME280;64357;51.344;6.550;2023-01-15T10:53:53;99814.63;;;7.05;66.42
75740;BME280;64357;51.344;6.550;2023-01-15T10:56:34;99795.00;;;7.21;65.81
75740;BME280;64357;51.344;6.550;2023-01-15T11:02:00;99808.88;;;7.42;64.84
75740;BME280;64357;51.344;6.550;2023-01-15T11:04:30;99820.88;;;7.34;65.25
75740;BME280;64357;51.344;6.550;2023-01-15T11:06:59;99812.81;;;7.12;65.94
75740;BME280;64357;51.344;6.550;2023-01-15T11:09:26;99801.63;;;7.02;67.07
75740;BME280;64357;51.344;6.550;2023-01-15T11:14:44;99813.81;;;7.32;66.34
75740;BME280;64357;51.344;6.550;2023-01-15T11:17:43;99801.75;;;7.29;65.80
75740;BME280;64357;51.344;6.550;2023-01-15T11:20:33;99812.50;;;7.27;66.11
75740;BME280;64357;51.344;6.550;2023-01-15T11:23:14;99794.41;;;7.32;65.65
75740;BME280;64357;51.344;6.550;2023-01-15T11:26:00;99788.59;;;7.33;65.89
75740;BME280;64357;51.344;6.550;2023-01-15T11:28:39;99802.19;;;7.25;65.26
75740;BME280;64357;51.344;6.550;2023-01-15T11:31:06;99800.84;;;7.20;65.35
75740;BME280;64357;51.344;6.550;2023-01-15T11:33:54;99794.88;;;7.19;66.09
75740;BME280;64357;51.344;6.550;2023-01-15T11:36:23;99801.31;;;7.07;66.14
75740;BME280;64357;51.344;6.550;2023-01-15T11:38:49;99805.38;;;7.05;66.60
75740;BME280;64357;51.344;6.550;2023-01-15T11:41:35;99808.78;;;7.14;66.29
75740;BME280;64357;51.344;6.550;2023-01-15T11:44:21;99796.25;;;7.07;65.78
75740;BME280;64357;51.344;6.550;2023-01-15T11:47:13;99781.31;;;7.10;66.31
75740;BME280;64357;51.344;6.550;2023-01-15T11:50:00;99799.97;;;7.19;66.45
75740;BME280;64357;51.344;6.550;2023-01-15T11:52:49;99792.66;;;7.22;65.98
75740;BME280;64357;51.344;6.550;2023-01-15T11:55:18;99782.38;;;7.57;64.98
75740;BME280;64357;51.344;6.550;2023-01-15T11:57:48;99793.81;;;7.26;65.08
75740;BME280;64357;51.344;6.550;2023-01-15T12:00:22;99796.22;;;7.25;66.11
75740;BME280;64357;51.344;6.550;2023-01-15T12:02:48;99796.97;;;7.24;66.01
75740;BME280;64357;51.344;6.550;2023-01-15T12:05:24;99809.66;;;7.24;65.59
75740;BME280;64357;51.344;6.550;2023-01-15T12:07:51;99793.81;;;7.26;64.49
75740;BME280;64357;51.344;6.550;2023-01-15T12:10:23;99805.03;;;7.73;63.79
75740;BME280;64357;51.344;6.550;2023-01-15T12:13:20;99792.03;;;7.70;63.83
75740;BME280;64357;51.344;6.550;2023-01-15T12:16:04;99811.56;;;7.80;63.09
75740;BME280;64357;51.344;6.550;2023-01-15T12:18:54;99812.16;;;7.41;63.66
75740;BME280;64357;51.344;6.550;2023-01-15T12:21:37;99815.47;;;7.40;64.00
75740;BME280;64357;51.344;6.550;2023-01-15T12:29:53;99787.09;;;7.27;65.99
75740;BME280;64357;51.344;6.550;2023-01-15T12:32:28;99775.91;;;7.25;65.29
75740;BME280;64357;51.344;6.550;2023-01-15T12:35:14;99788.47;;;7.14;65.53
75740;BME280;64357;51.344;6.550;2023-01-15T12:37:48;99781.59;;;7.22;65.72
75740;BME280;64357;51.344;6.550;2023-01-15T12:40:25;99780.53;;;7.20;65.45
75740;BME280;64357;51.344;6.550;2023-01-15T12:42:53;99788.59;;;7.33;65.89
75740;BME280;64357;51.344;6.550;2023-01-15T12:45:42;99776.78;;;7.34;65.06
75740;BME280;64357;51.344;6.550;2023-01-15T12:48:27;99785.38;;;7.53;64.66
75740;BME280;64357;51.344;6.550;2023-01-15T12:51:00;99787.78;;;7.52;63.98
75740;BME280;64357;51.344;6.550;2023-01-15T13:01:09;99783.91;;;7.38;66.14
75740;BME280;64357;51.344;6.550;2023-01-15T13:06:12;99787.13;;;7.18;65.63
75740;BME280;64357;51.344;6.550;2023-01-15T13:08:46;99793.53;;;7.14;66.37
75740;BME280;64357;51.344;6.550;2023-01-15T13:11:14;99809.53;;;7.13;66.31
75740;BME280;64357;51.344;6.550;2023-01-15T13:13:43;99794.63;;;6.99;66.96
75740;BME280;64357;51.344;6.550;2023-01-15T13:16:39;99789.84;;;7.11;66.95
75740;BME280;64357;51.344;6.550;2023-01-15T13:19:19;99789.53;;;7.16;66.03
75740;BME280;64357;51.344;6.550;2023-01-15T13:21:48;99772.03;;;7.19;65.66
75740;BME280;64357;51.344;6.550;2023-01-15T13:24:26;99789.78;;;7.28;65.32
75740;BME280;64357;51.344;6.550;2023-01-15T13:30:07;99790.69;;;7.29;65.93
75740;BME280;64357;51.344;6.550;2023-01-15T13:32:42;99784.13;;;7.22;65.84
75740;BME280;64357;51.344;6.550;2023-01-15T13:42:35;99791.31;;;7.17;66.03
75740;BME280;64357;51.344;6.550;2023-01-15T13:45:07;99799.19;;;7.20;65.73
75740;BME280;64357;51.344;6.550;2023-01-15T13:47:49;99793.81;;;7.26;65.16
75740;BME280;64357;51.344;6.550;2023-01-15T13:50:25;99797.25;;;7.27;65.68
75740;BME280;64357;51.344;6.550;2023-01-15T13:53:00;99777.41;;;7.22;65.86
75740;BME280;64357;51.344;6.550;2023-01-15T13:55:33;99786.09;;;7.16;65.31
75740;BME280;64357;51.344;6.550;2023-01-15T13:58:00;99777.41;;;7.14;65.58
75740;BME280;64357;51.344;6.550;2023-01-15T14:00:30;99790.56;;;7.18;65.49
75740;BME280;64357;51.344;6.550;2023-01-15T14:02:59;99779.06;;;7.13;65.46
75740;BME280;64357;51.344;6.550;2023-01-15T14:05:31;99785.34;;;7.08;66.29
75740;BME280;64357;51.344;6.550;2023-01-15T14:07:58;99802.22;;;7.08;65.92
75740;BME280;64357;51.344;6.550;2023-01-15T14:10:34;99796.41;;;7.00;66.48
75740;BME280;64357;51.344;6.550;2023-01-15T14:13:25;99814.91;;;7.16;66.91
75740;BME280;64357;51.344;6.550;2023-01-15T14:18:58;99784.75;;;7.11;66.67
75740;BME280;64357;51.344;6.550;2023-01-15T14:21:43;99798.94;;;7.17;65.78
75740;BME280;64357;51.344;6.550;2023-01-15T14:26:58;99784.88;;;7.12;65.34
75740;BME280;64357;51.344;6.550;2023-01-15T14:35:13;99799.97;;;7.19;65.09
75740;BME280;64357;51.344;6.550;2023-01-15T14:37:57;99803.69;;;7.14;65.54
75740;BME280;64357;51.344;6.550;2023-01-15T14:40:27;99802.06;;;7.15;65.46
75740;BME280;64357;51.344;6.550;2023-01-15T14:42:55;99797.28;;;7.18;64.86
75740;BME280;64357;51.344;6.550;2023-01-15T14:45:36;99805.34;;;7.14;65.00
75740;BME280;64357;51.344;6.550;2023-01-15T14:48:16;99807.59;;;7.11;65.03
75740;BME280;64357;51.344;6.550;2023-01-15T14:50:43;99805.97;;;7.11;65.00
75740;BME280;64357;51.344;6.550;2023-01-15T14:56:00;99829.41;;;7.17;65.83
75740;BME280;64357;51.344;6.550;2023-01-15T15:01:35;99824.63;;;7.12;65.22
75740;BME280;64357;51.344;6.550;2023-01-15T15:04:20;99821.34;;;7.13;65.17
75740;BME280;64357;51.344;6.550;2023-01-15T15:09:27;99819.53;;;7.20;65.09
75740;BME280;64357;51.344;6.550;2023-01-15T15:12:05;99822.81;;;7.28;65.27
75740;BME280;64357;51.344;6.550;2023-01-15T15:14:56;99817.94;;;7.04;65.74
75740;BME280;64357;51.344;6.550;2023-01-15T15:23:03;99828.69;;;7.10;65.48
75740;BME280;64357;51.344;6.550;2023-01-15T15:25:35;99822.38;;;7.15;65.53
75740;BME280;64357;51.344;6.550;2023-01-15T15:28:09;99840.44;;;7.09;65.07
75740;BME280;64357;51.344;6.550;2023-01-15T15:30:40;99824.94;;;7.06;65.38